Terminal Aerodrome Forecast
Issued by NWS

Home | Current Version | Previous Version | Text Only | Print | Product List | Glossary On
Versions: 1 2 3 4 5 6 7 8 9 10 11 12 13 14 15 16 17 18 19 20 21 22 23 24 25 26 27 28
000
FTUS45 KVEF 230853 AAB
TAFLAS
TAF AMD
KLAS 230853Z 2309/2412 17009KT P6SM FEW150
     FM231200 VRB06KT P6SM SCT150
     FM231900 11007KT P6SM SCT150
     FM240200 15010KT P6SM SCT150
     FM240600 20008KT P6SM SCT150 SCT250=

USA.gov is the U.S. government's official web portal to all federal, state and local government web resources and services.